createdAt,value
2022-12-11T00:02:14.629Z,21.27
2022-12-11T00:04:42.348Z,16.43
2022-12-11T00:07:09.897Z,24.10
2022-12-11T00:09:39.129Z,20.00
2022-12-11T00:12:07.440Z,23.23
2022-12-11T00:14:35.178Z,20.80
2022-12-11T00:17:02.745Z,20.37
2022-12-11T00:19:30.504Z,22.20
2022-12-11T00:21:58.318Z,19.73
2022-12-11T00:24:25.834Z,21.53
2022-12-11T00:26:54.708Z,23.03
2022-12-11T00:29:22.230Z,22.17
2022-12-11T00:31:49.827Z,22.33
2022-12-11T00:34:17.433Z,25.40
2022-12-11T00:36:44.997Z,25.23
2022-12-11T00:39:12.516Z,29.33
2022-12-11T00:41:40.056Z,23.13
2022-12-11T00:44:08.914Z,23.30
2022-12-11T00:46:36.468Z,22.53
2022-12-11T00:49:04.192Z,24.07
2022-12-11T00:51:31.736Z,35.47
2022-12-11T00:53:59.251Z,24.00
2022-12-11T00:56:26.806Z,24.50
2022-12-11T00:58:54.360Z,39.00
2022-12-11T01:01:25.484Z,27.87
2022-12-11T01:03:53.782Z,32.23
2022-12-11T01:06:23.352Z,31.27
2022-12-11T01:09:13.250Z,36.93
2022-12-11T01:11:40.954Z,38.50
2022-12-11T01:14:09.205Z,37.40
2022-12-11T01:16:38.174Z,27.60
2022-12-11T01:19:05.820Z,39.13
2022-12-11T01:21:33.396Z,33.30
2022-12-11T01:24:00.984Z,36.40
2022-12-11T01:26:29.460Z,35.80
2022-12-11T01:28:57.224Z,27.67
2022-12-11T01:31:24.760Z,40.83
2022-12-11T01:33:56.108Z,25.90
2022-12-11T01:36:24.240Z,24.27
2022-12-11T01:38:53.509Z,27.47
2022-12-11T01:41:21.707Z,25.47
2022-12-11T01:44:00.868Z,29.27
2022-12-11T01:46:29.513Z,28.13
2022-12-11T01:48:58.715Z,38.87
2022-12-11T01:51:27.113Z,43.97
2022-12-11T01:54:00.083Z,34.30
2022-12-11T01:56:28.493Z,29.03
2022-12-11T01:59:00.070Z,26.53
2022-12-11T02:01:34.374Z,27.37
2022-12-11T02:04:03.683Z,28.43
2022-12-11T02:06:34.243Z,25.90
2022-12-11T02:09:02.501Z,26.40
2022-12-11T02:11:39.725Z,29.63
2022-12-11T02:14:14.975Z,28.40
2022-12-11T02:16:47.953Z,27.30
2022-12-11T02:19:31.816Z,25.53
2022-12-11T02:22:02.708Z,26.57
2022-12-11T02:24:54.192Z,29.60
2022-12-11T02:27:31.552Z,28.47
2022-12-11T02:30:03.448Z,27.33
2022-12-11T02:32:36.482Z,27.63
2022-12-11T02:35:10.374Z,25.93
2022-12-11T02:37:42.101Z,26.53
2022-12-11T02:40:13.626Z,26.30
2022-12-11T02:42:44.272Z,28.83
2022-12-11T02:45:14.979Z,28.67
2022-12-11T02:47:45.275Z,28.37
2022-12-11T02:50:16.711Z,28.67
2022-12-11T02:52:45.798Z,21.37
2022-12-11T02:55:16.071Z,28.13
2022-12-11T02:57:47.854Z,29.33
2022-12-11T03:00:18.550Z,31.73
2022-12-11T03:02:47.115Z,28.33
2022-12-11T03:05:15.626Z,29.90
2022-12-11T03:07:45.248Z,34.63
2022-12-11T03:10:16.739Z,29.47
2022-12-11T03:12:53.059Z,32.37
2022-12-11T03:15:30.171Z,28.80
2022-12-11T03:18:06.600Z,32.73
2022-12-11T03:20:40.770Z,29.03
2022-12-11T03:23:17.437Z,27.53
2022-12-11T03:25:52.205Z,47.17
2022-12-11T03:28:27.010Z,32.90
2022-12-11T03:30:58.451Z,59.83
2022-12-11T03:33:30.782Z,61.20
2022-12-11T03:36:04.654Z,59.10
2022-12-11T03:38:37.344Z,66.77
2022-12-11T03:41:07.104Z,63.43
2022-12-11T03:43:36.216Z,44.83
2022-12-11T03:46:06.404Z,34.67
2022-12-11T03:48:37.040Z,39.97
2022-12-11T03:51:07.603Z,40.57
2022-12-11T03:53:36.392Z,37.07
2022-12-11T03:56:07.149Z,30.07
2022-12-11T03:58:34.805Z,29.80
2022-12-11T04:01:02.526Z,30.57
2022-12-11T04:03:31.584Z,28.57
2022-12-11T04:05:59.109Z,28.80
2022-12-11T04:08:26.669Z,30.50
2022-12-11T04:11:14.951Z,37.97
2022-12-11T04:13:42.952Z,37.47
2022-12-11T04:16:09.875Z,39.57
2022-12-11T04:18:56.500Z,39.03
2022-12-11T04:21:41.906Z,41.07
2022-12-11T04:24:16.301Z,40.03
2022-12-11T04:26:44.335Z,35.73
2022-12-11T04:29:11.948Z,31.70
2022-12-11T04:31:39.579Z,33.27
2022-12-11T04:34:08.656Z,32.83
2022-12-11T04:36:36.578Z,38.73
2022-12-11T04:39:05.054Z,34.83
2022-12-11T04:41:32.799Z,36.57
2022-12-11T04:44:00.386Z,29.80
2022-12-11T04:46:28.035Z,31.03
2022-12-11T04:48:57.571Z,24.40
2022-12-11T04:51:27.426Z,29.23
2022-12-11T04:53:55.354Z,30.37
2022-12-11T04:56:23.299Z,35.93
2022-12-11T04:58:50.828Z,18.60
2022-12-11T05:01:20.810Z,29.73
2022-12-11T05:03:48.733Z,28.63
2022-12-11T05:06:16.688Z,27.90
2022-12-11T05:08:46.216Z,27.63
2022-12-11T05:11:16.133Z,26.20
2022-12-11T05:13:44.234Z,26.10
2022-12-11T05:16:15.374Z,26.63
2022-12-11T05:18:43.251Z,26.47
2022-12-11T05:21:14.246Z,26.77
2022-12-11T05:23:42.405Z,25.93
2022-12-11T05:26:13.905Z,28.60
2022-12-11T05:28:42.012Z,21.70
2022-12-11T05:31:13.777Z,28.13
2022-12-11T05:33:41.576Z,23.93
2022-12-11T05:36:10.020Z,26.30
2022-12-11T05:38:37.548Z,21.23
2022-12-11T05:41:07.474Z,24.67
2022-12-11T05:43:37.923Z,28.13
2022-12-11T05:46:11.621Z,20.83
2022-12-11T05:48:39.838Z,26.03
2022-12-11T05:51:08.666Z,26.23
2022-12-11T05:53:37.484Z,27.17
2022-12-11T05:56:07.144Z,27.17
2022-12-11T05:58:36.503Z,30.90
2022-12-11T06:01:08.733Z,31.80
2022-12-11T06:03:36.266Z,29.93
2022-12-11T06:06:04.440Z,32.03
2022-12-11T06:08:32.348Z,29.43
2022-12-11T06:11:00.464Z,32.30
2022-12-11T06:13:28.455Z,29.27
2022-12-11T06:16:01.359Z,27.60
2022-12-11T06:18:28.906Z,21.83
2022-12-11T06:20:56.455Z,26.03
2022-12-11T06:23:24.053Z,19.43
2022-12-11T06:25:51.592Z,28.37
2022-12-11T06:28:19.101Z,33.17
2022-12-11T06:30:46.644Z,29.53
2022-12-11T06:33:15.532Z,29.20
2022-12-11T06:35:43.058Z,25.23
2022-12-11T06:38:10.944Z,35.43
2022-12-11T06:40:38.573Z,36.73
2022-12-11T06:43:06.182Z,23.03
2022-12-11T06:45:33.826Z,28.07
2022-12-11T06:48:01.478Z,30.53
2022-12-11T06:50:30.394Z,32.20
2022-12-11T06:52:58.048Z,20.73
2022-12-11T06:55:25.592Z,33.90
2022-12-11T06:57:53.119Z,34.40
2022-12-11T07:00:20.903Z,24.27
2022-12-11T07:02:48.407Z,27.97
2022-12-11T07:05:16.104Z,26.43
2022-12-11T07:07:45.097Z,25.07
2022-12-11T07:10:12.835Z,23.40
2022-12-11T07:12:40.461Z,22.73
2022-12-11T07:15:09.308Z,25.70
2022-12-11T07:17:37.028Z,21.87
2022-12-11T07:20:05.373Z,18.33
2022-12-11T07:22:33.009Z,22.43
2022-12-11T07:25:01.865Z,18.00
2022-12-11T07:27:30.450Z,21.10
2022-12-11T07:29:57.964Z,18.67
2022-12-11T07:32:25.580Z,23.97
2022-12-11T07:34:53.242Z,23.27
2022-12-11T07:37:20.792Z,22.53
2022-12-11T07:39:48.934Z,23.67
2022-12-11T07:42:17.912Z,21.17
2022-12-11T07:44:45.420Z,21.83
2022-12-11T07:47:12.955Z,21.40
2022-12-11T07:49:40.475Z,24.80
2022-12-11T07:52:08.037Z,26.23
2022-12-11T07:54:35.547Z,26.53
2022-12-11T07:57:03.107Z,24.33
2022-12-11T07:59:32.140Z,21.67
2022-12-11T08:01:59.783Z,19.33
2022-12-11T08:04:27.308Z,23.07
2022-12-11T08:06:54.809Z,20.80
2022-12-11T08:09:23.079Z,21.90
2022-12-11T08:11:51.307Z,18.97
2022-12-11T08:14:19.422Z,22.73
2022-12-11T08:16:48.819Z,26.77
2022-12-11T08:19:16.914Z,49.20
2022-12-11T08:21:45.007Z,38.97
2022-12-11T08:24:12.524Z,28.97
2022-12-11T08:26:40.467Z,32.67
2022-12-11T08:29:07.990Z,21.37
2022-12-11T08:31:35.597Z,22.77
2022-12-11T08:34:04.560Z,18.70
2022-12-11T08:36:32.313Z,22.47
2022-12-11T08:38:59.884Z,21.10
2022-12-11T08:41:29.108Z,28.33
2022-12-11T08:43:57.757Z,23.37
2022-12-11T08:46:28.381Z,19.73
2022-12-11T08:48:56.678Z,17.50
2022-12-11T08:51:27.070Z,20.80
2022-12-11T08:53:56.489Z,42.00
2022-12-11T08:56:24.626Z,35.47
2022-12-11T08:58:53.027Z,39.43
2022-12-11T09:01:23.085Z,32.20
2022-12-11T09:03:51.941Z,35.30
2022-12-11T09:06:21.848Z,29.03
2022-12-11T09:08:53.173Z,19.70
2022-12-11T09:11:23.500Z,16.60
2022-12-11T09:13:51.409Z,14.37
2022-12-11T09:16:21.603Z,14.77
2022-12-11T09:18:51.144Z,86.13
2022-12-11T09:21:21.270Z,136.57
2022-12-11T09:23:50.986Z,151.57
2022-12-11T09:26:20.058Z,142.73
2022-12-11T09:28:48.054Z,17.03
2022-12-11T09:31:17.269Z,14.30
2022-12-11T09:33:45.194Z,80.90
2022-12-11T09:36:13.069Z,79.07
2022-12-11T09:38:40.763Z,168.67
2022-12-11T09:41:33.862Z,152.73
2022-12-11T09:44:06.627Z,143.87
2022-12-11T09:46:35.883Z,160.13
2022-12-11T09:49:06.192Z,156.10
2022-12-11T09:51:40.396Z,145.27
2022-12-11T09:54:08.049Z,139.50
2022-12-11T09:56:43.619Z,122.60
2022-12-11T09:59:23.456Z,109.70
2022-12-11T10:01:55.605Z,73.63
2022-12-11T10:04:43.816Z,81.23
2022-12-11T10:07:16.962Z,37.37
2022-12-11T10:09:51.213Z,50.00
2022-12-11T10:12:34.444Z,71.63
2022-12-11T10:15:17.663Z,86.57
2022-12-11T10:17:46.420Z,83.13
2022-12-11T10:20:23.284Z,21.63
2022-12-11T10:22:51.887Z,77.53
2022-12-11T10:25:25.357Z,48.60
2022-12-11T10:27:54.627Z,64.10
2022-12-11T10:30:25.071Z,88.17
2022-12-11T10:32:58.202Z,87.90
2022-12-11T10:35:37.088Z,98.33
2022-12-11T10:38:14.831Z,90.97
2022-12-11T10:40:44.992Z,93.00
2022-12-11T10:43:13.920Z,95.70
2022-12-11T10:45:41.492Z,96.87
2022-12-11T10:48:13.156Z,87.13
2022-12-11T10:50:41.125Z,97.73
2022-12-11T10:53:21.462Z,103.60
2022-12-11T10:55:50.006Z,78.87
2022-12-11T10:58:22.571Z,62.83
2022-12-11T11:01:03.516Z,23.60
2022-12-11T11:03:31.144Z,49.37
2022-12-11T11:06:08.075Z,36.37
2022-12-11T11:08:42.453Z,54.37
2022-12-11T11:11:22.256Z,18.03
2022-12-11T11:13:51.154Z,20.13
2022-12-11T11:16:21.982Z,24.73
2022-12-11T11:18:55.254Z,14.40
2022-12-11T11:21:26.192Z,52.50
2022-12-11T11:23:55.183Z,104.03
2022-12-11T11:26:23.595Z,105.37
2022-12-11T11:28:55.632Z,92.50
2022-12-11T11:31:33.784Z,97.40
2022-12-11T11:34:04.174Z,78.70
2022-12-11T11:36:34.196Z,81.17
2022-12-11T11:39:19.448Z,83.43
2022-12-11T11:41:53.131Z,109.47
2022-12-11T11:44:26.390Z,94.40
2022-12-11T11:47:00.116Z,94.70
2022-12-11T11:49:45.483Z,100.70
2022-12-11T11:52:16.884Z,99.90
2022-12-11T11:54:51.522Z,81.33
2022-12-11T11:57:25.812Z,84.60
2022-12-11T11:59:59.139Z,86.30
2022-12-11T12:02:26.757Z,93.53
2022-12-11T12:04:54.670Z,63.13
2022-12-11T12:07:33.535Z,62.70
2022-12-11T12:10:11.491Z,36.43
2022-12-11T12:12:47.918Z,21.10
2022-12-11T12:15:25.483Z,11.67
2022-12-11T12:17:56.328Z,11.27
2022-12-11T12:20:35.938Z,50.57
2022-12-11T12:23:27.964Z,27.97
2022-12-11T12:26:04.202Z,48.43
2022-12-11T12:28:39.292Z,42.13
2022-12-11T12:31:22.623Z,19.37
2022-12-11T12:34:01.662Z,21.03
2022-12-11T12:36:39.650Z,33.27
2022-12-11T12:39:21.631Z,17.87
2022-12-11T12:42:01.375Z,11.23
2022-12-11T12:44:42.908Z,10.20
2022-12-11T12:47:15.282Z,21.53
2022-12-11T12:49:46.508Z,15.83
2022-12-11T12:52:17.735Z,18.73
2022-12-11T12:55:03.625Z,8.57
2022-12-11T12:57:32.020Z,10.30
2022-12-11T12:59:59.537Z,7.77
2022-12-11T13:02:28.679Z,8.00
2022-12-11T13:04:59.690Z,7.00
2022-12-11T13:07:30.664Z,8.80
2022-12-11T13:10:01.330Z,8.17
2022-12-11T13:12:40.689Z,9.33
2022-12-11T13:15:24.700Z,8.20
2022-12-11T13:17:53.978Z,7.93
2022-12-11T13:20:23.955Z,7.47
2022-12-11T13:22:57.885Z,6.97
2022-12-11T13:25:29.408Z,8.30
2022-12-11T13:28:07.598Z,8.90
2022-12-11T13:30:35.536Z,7.83
2022-12-11T13:33:07.250Z,10.73
2022-12-11T13:35:36.270Z,9.93
2022-12-11T13:38:09.211Z,6.03
2022-12-11T13:40:43.063Z,6.77
2022-12-11T13:43:19.050Z,7.13
2022-12-11T13:45:50.443Z,8.23
2022-12-11T13:48:24.232Z,9.13
2022-12-11T13:50:53.243Z,11.13
2022-12-11T13:53:22.443Z,10.13
2022-12-11T13:55:57.756Z,8.30
2022-12-11T13:58:25.748Z,7.77
2022-12-11T14:01:07.475Z,9.63
2022-12-11T14:03:36.779Z,8.07
2022-12-11T14:06:05.130Z,11.10
2022-12-11T14:08:37.148Z,10.10
2022-12-11T14:11:06.100Z,9.90
2022-12-11T14:13:36.350Z,12.17
2022-12-11T14:16:04.987Z,13.17
2022-12-11T14:18:36.104Z,17.83
2022-12-11T14:21:07.286Z,14.63
2022-12-11T14:23:36.218Z,12.27
2022-12-11T14:26:14.392Z,19.17
2022-12-11T14:28:43.891Z,11.83
2022-12-11T14:31:17.018Z,10.23
2022-12-11T14:33:49.029Z,13.50
2022-12-11T14:36:18.564Z,11.40
2022-12-11T14:38:49.226Z,26.27
2022-12-11T14:41:20.522Z,91.73
2022-12-11T14:43:51.062Z,50.27
2022-12-11T14:46:23.502Z,26.27
2022-12-11T14:49:00.743Z,10.53
2022-12-11T14:51:35.834Z,14.70
2022-12-11T14:54:05.095Z,10.13
2022-12-11T14:56:33.368Z,12.33
2022-12-11T14:59:03.636Z,8.43
2022-12-11T15:01:33.627Z,11.10
2022-12-11T15:04:06.932Z,13.57
2022-12-11T15:06:43.641Z,12.00
2022-12-11T15:09:19.246Z,20.40
2022-12-11T15:11:47.846Z,11.73
2022-12-11T15:14:17.759Z,12.27
2022-12-11T15:16:45.865Z,13.03
2022-12-11T15:19:22.000Z,15.43
2022-12-11T15:21:52.034Z,9.80
2022-12-11T15:24:26.990Z,10.50
2022-12-11T15:26:59.557Z,14.80
2022-12-11T15:29:33.614Z,13.30
2022-12-11T15:32:03.398Z,30.77
2022-12-11T15:34:35.546Z,19.90
2022-12-11T15:37:04.431Z,55.20
2022-12-11T15:39:31.947Z,76.07
2022-12-11T15:41:59.531Z,78.77
2022-12-11T15:44:27.082Z,63.57
2022-12-11T15:46:54.629Z,89.93
2022-12-11T15:49:24.145Z,108.33
2022-12-11T15:51:52.613Z,58.83
2022-12-11T15:54:21.489Z,44.00
2022-12-11T15:56:49.012Z,41.00
2022-12-11T15:59:22.827Z,90.90
2022-12-11T16:01:50.392Z,128.63
2022-12-11T16:04:17.931Z,109.50
2022-12-11T16:06:46.845Z,28.30
2022-12-11T16:09:14.378Z,17.07
2022-12-11T16:11:43.297Z,21.67
2022-12-11T16:14:10.805Z,17.70
2022-12-11T16:16:38.340Z,8.27
2022-12-11T16:19:05.874Z,16.70
2022-12-11T16:21:33.419Z,7.00
2022-12-11T16:24:00.933Z,10.10
2022-12-11T16:26:28.481Z,9.80
2022-12-11T16:28:57.323Z,10.13
2022-12-11T16:31:24.960Z,12.90
2022-12-11T16:33:52.512Z,12.47
2022-12-11T16:36:21.299Z,13.47
2022-12-11T16:38:54.006Z,15.10
2022-12-11T16:41:22.837Z,14.03
2022-12-11T16:43:50.513Z,33.73
2022-12-11T16:46:20.164Z,62.97
2022-12-11T16:48:48.056Z,52.50
2022-12-11T16:51:15.998Z,97.63
2022-12-11T16:53:43.527Z,112.70
2022-12-11T16:56:11.089Z,32.47
2022-12-11T16:58:40.458Z,9.80
2022-12-11T17:01:12.047Z,19.27
2022-12-11T17:03:42.904Z,37.70
2022-12-11T17:06:12.153Z,12.63
2022-12-11T17:08:40.091Z,22.63
2022-12-11T17:11:08.682Z,80.00
2022-12-11T17:13:36.508Z,9.87
2022-12-11T17:16:05.895Z,25.03
2022-12-11T17:18:33.917Z,56.70
2022-12-11T17:21:06.663Z,92.87
2022-12-11T17:23:34.305Z,102.20
2022-12-11T17:26:02.529Z,97.53
2022-12-11T17:28:30.469Z,60.73
2022-12-11T17:30:58.517Z,94.10
2022-12-11T17:33:26.062Z,13.03
2022-12-11T17:35:53.704Z,22.47
2022-12-11T17:38:22.562Z,9.53
2022-12-11T17:40:50.140Z,24.30
2022-12-11T17:43:17.726Z,13.77
2022-12-11T17:45:46.959Z,20.87
2022-12-11T17:48:15.674Z,13.43
2022-12-11T17:50:44.559Z,7.00
2022-12-11T17:53:12.872Z,8.73
2022-12-11T17:55:43.340Z,14.10
2022-12-11T17:58:11.512Z,11.97
2022-12-11T18:00:39.967Z,9.03
2022-12-11T18:03:07.492Z,7.00
2022-12-11T18:05:35.232Z,5.97
2022-12-11T18:08:02.874Z,4.63
2022-12-11T18:10:30.394Z,8.40
2022-12-11T18:12:59.252Z,8.30
2022-12-11T18:15:27.066Z,8.23
2022-12-11T18:17:57.748Z,9.90
2022-12-11T18:20:25.797Z,12.83
2022-12-11T18:22:53.368Z,10.47
2022-12-11T18:25:21.094Z,11.83
2022-12-11T18:27:48.732Z,10.57
2022-12-11T18:30:17.931Z,9.00
2022-12-11T18:32:45.930Z,18.53
2022-12-11T18:35:14.255Z,86.53
2022-12-11T18:37:42.236Z,96.17
2022-12-11T18:40:11.828Z,116.03
2022-12-11T18:42:39.603Z,164.77
2022-12-11T18:45:08.060Z,148.47
2022-12-11T18:47:37.304Z,30.07
2022-12-11T18:50:08.134Z,12.87
2022-12-11T18:52:36.347Z,11.60
2022-12-11T18:55:05.569Z,11.50
2022-12-11T18:57:33.280Z,13.17
2022-12-11T19:00:07.240Z,13.23
2022-12-11T19:02:35.210Z,15.37
2022-12-11T19:05:04.502Z,13.23
2022-12-11T19:07:32.034Z,14.10
2022-12-11T19:09:59.561Z,8.83
2022-12-11T19:12:27.127Z,12.93
2022-12-11T19:14:54.694Z,13.40
2022-12-11T19:17:22.219Z,14.43
2022-12-11T19:19:50.294Z,16.57
2022-12-11T19:22:19.182Z,13.90
2022-12-11T19:24:46.699Z,18.73
2022-12-11T19:27:14.298Z,13.90
2022-12-11T19:29:41.998Z,20.07
2022-12-11T19:32:09.611Z,12.17
2022-12-11T19:34:38.379Z,14.37
2022-12-11T19:37:06.077Z,22.53
2022-12-11T19:39:35.307Z,24.57
2022-12-11T19:42:02.857Z,22.97
2022-12-11T19:44:30.404Z,15.37
2022-12-11T19:46:58.050Z,14.83
2022-12-11T19:49:25.637Z,16.17
2022-12-11T19:51:53.234Z,15.60
2022-12-11T19:54:20.770Z,15.80
2022-12-11T19:56:49.654Z,15.50
2022-12-11T19:59:18.036Z,14.20
2022-12-11T20:01:47.929Z,12.63
2022-12-11T20:04:17.683Z,17.43
2022-12-11T20:06:47.365Z,12.17
2022-12-11T20:09:15.688Z,14.63
2022-12-11T20:11:45.391Z,14.47
2022-12-11T20:14:22.430Z,14.00
2022-12-11T20:17:10.496Z,15.37
2022-12-11T20:19:38.931Z,11.37
2022-12-11T20:22:06.796Z,13.77
2022-12-11T20:24:34.523Z,12.27
2022-12-11T20:27:02.071Z,14.27
2022-12-11T20:29:31.007Z,11.83
2022-12-11T20:31:59.731Z,14.37
2022-12-11T20:34:27.563Z,14.00
2022-12-11T20:36:56.194Z,13.07
2022-12-11T20:39:23.821Z,16.13
2022-12-11T20:41:51.423Z,12.97
2022-12-11T20:44:19.988Z,15.70
2022-12-11T20:46:48.881Z,13.40
2022-12-11T20:49:16.484Z,13.97
2022-12-11T20:51:44.044Z,14.50
2022-12-11T20:54:11.662Z,14.30
2022-12-11T20:56:39.423Z,15.40
2022-12-11T20:59:06.976Z,14.97
2022-12-11T21:01:35.077Z,14.83
2022-12-11T21:04:04.193Z,13.27
2022-12-11T21:06:34.086Z,14.67
2022-12-11T21:09:07.403Z,12.63
2022-12-11T21:11:35.223Z,15.30
2022-12-11T21:14:02.738Z,16.20
2022-12-11T21:16:30.688Z,16.27
2022-12-11T21:18:59.157Z,14.93
2022-12-11T21:21:28.106Z,17.63
2022-12-11T21:23:55.683Z,20.70
2022-12-11T21:26:23.239Z,16.63
2022-12-11T21:28:51.310Z,17.60
2022-12-11T21:31:20.337Z,16.53
2022-12-11T21:33:48.756Z,18.50
2022-12-11T21:36:17.013Z,18.37
2022-12-11T21:38:47.524Z,18.73
2022-12-11T21:41:17.850Z,18.37
2022-12-11T21:44:40.889Z,17.30
2022-12-11T21:46:34.941Z,17.23
2022-12-11T21:49:02.535Z,20.40
2022-12-11T21:51:36.924Z,18.30
2022-12-11T21:54:10.176Z,19.07
2022-12-11T21:56:37.731Z,25.60
2022-12-11T21:59:05.756Z,19.57
2022-12-11T22:01:38.050Z,22.87
2022-12-11T22:04:06.475Z,22.13
2022-12-11T22:06:34.492Z,20.23
2022-12-11T22:09:02.238Z,21.83
2022-12-11T22:11:33.424Z,19.53
2022-12-11T22:14:01.243Z,15.23
2022-12-11T22:16:29.374Z,18.60
2022-12-11T22:18:57.062Z,20.80
2022-12-11T22:21:25.569Z,19.70
2022-12-11T22:23:53.143Z,20.37
2022-12-11T22:26:23.102Z,18.83
2022-12-11T22:28:52.089Z,15.77
2022-12-11T22:31:22.482Z,16.03
2022-12-11T22:33:51.139Z,16.20
2022-12-11T22:36:18.931Z,16.60
2022-12-11T22:38:47.059Z,16.23
2022-12-11T22:41:24.525Z,16.80
2022-12-11T22:43:54.008Z,13.97
2022-12-11T22:46:23.944Z,15.33
2022-12-11T22:48:52.029Z,18.97
2022-12-11T22:51:19.632Z,17.57
2022-12-11T22:53:47.173Z,12.27
2022-12-11T22:56:15.179Z,14.90
2022-12-11T22:58:43.134Z,13.20
2022-12-11T23:01:14.279Z,16.17
2022-12-11T23:03:42.378Z,19.00
2022-12-11T23:06:13.316Z,13.93
2022-12-11T23:08:41.575Z,15.93
2022-12-11T23:11:12.931Z,15.83
2022-12-11T23:13:41.326Z,14.20
2022-12-11T23:16:09.352Z,12.57
2022-12-11T23:18:38.562Z,18.20
2022-12-11T23:21:06.311Z,17.77
2022-12-11T23:23:33.950Z,18.43
2022-12-11T23:26:01.649Z,17.23
2022-12-11T23:28:29.246Z,19.73
2022-12-11T23:30:56.832Z,15.50
2022-12-11T23:33:24.411Z,15.97
2022-12-11T23:35:53.267Z,19.23
2022-12-11T23:38:20.781Z,17.40
2022-12-11T23:40:48.366Z,17.73
2022-12-11T23:43:16.038Z,18.37
2022-12-11T23:45:44.225Z,18.07
2022-12-11T23:48:12.577Z,20.93
2022-12-11T23:50:40.903Z,20.93
2022-12-11T23:53:09.844Z,24.23
2022-12-11T23:55:39.671Z,22.70
2022-12-11T23:58:07.351Z,21.30
